.
WxDataArchive / Data Records for 2007-09-03
2007-09-02 September 2007 2007-09-04

Data Records for Monday, 03 September 2007

Time	Temp	Chill	HIndex	Humid	Dewpt	 Wind 	HiWind	WindDir	Rain 	Barom 
-----	----	-----	------	-----	-----	------	------	-------	-----	----- 
00:00	60.1	60.1	60.1	93	58.1	0	0	---	0.00	30.059 
00:05	60.2	60.2	60.2	94	58.5	0	0	---	0.00	30.060 
00:10	60.2	60.2	60.2	94	58.5	0	0	---	0.00	30.062 
00:15	60.1	60.1	60.1	94	58.4	0	0	---	0.00	30.062 
00:20	59.9	59.9	59.9	94	58.2	0	0	---	0.00	30.059 
00:25	59.8	59.8	59.8	94	58.1	0	0	---	0.00	30.057 
00:30	59.8	59.8	59.8	94	58.1	0	0	---	0.00	30.058 
00:35	59.6	59.6	59.6	94	57.9	0	0	---	0.00	30.059 
00:40	59.5	59.5	59.5	94	57.8	0	0	---	0.00	30.058 
00:45	59.3	59.3	59.3	94	57.6	0	0	---	0.00	30.059 
00:50	59.2	59.2	59.2	95	57.8	0	0	---	0.00	30.060 
00:55	59.2	59.2	59.2	95	57.8	0	0	---	0.00	30.062 
01:00	59.0	59.0	59.0	95	57.6	0	0	---	0.00	30.065 
01:05	59.0	59.0	59.0	95	57.6	0	0	---	0.00	30.063 
01:10	58.9	58.9	58.9	95	57.5	0	0	---	0.00	30.061 
01:15	58.7	58.7	58.7	95	57.3	0	0	---	0.00	30.061 
01:20	58.7	58.7	58.7	95	57.3	0	0	---	0.00	30.061 
01:25	58.6	58.6	58.6	95	57.2	0	0	---	0.00	30.060 
01:30	58.4	58.4	58.4	95	57.0	0	0	---	0.00	30.060 
01:35	58.4	58.4	58.4	95	57.0	0	0	---	0.00	30.060 
01:40	58.3	58.3	58.3	95	56.9	0	0	---	0.00	30.059 
01:45	58.3	58.3	58.3	95	56.9	0	0	---	0.00	30.058 
01:50	58.1	58.1	58.1	96	57.0	0	0	---	0.00	30.058 
01:55	58.1	58.1	58.1	96	57.0	0	0	---	0.00	30.058 
02:00	58.1	58.1	58.1	96	57.0	0	0	---	0.00	30.059 
02:05	58.0	58.0	58.0	96	56.9	0	0	---	0.00	30.061 
02:10	58.0	58.0	58.0	96	56.9	0	0	---	0.00	30.061 
02:15	57.8	57.8	57.8	96	56.7	0	0	---	0.00	30.063 
02:20	57.8	57.8	57.8	96	56.7	0	0	---	0.00	30.061 
02:25	57.6	57.6	57.6	96	56.5	0	0	---	0.00	30.064 
02:30	57.5	57.5	57.5	96	56.4	0	0	---	0.00	30.067 
02:35	57.5	57.5	57.5	96	56.4	0	0	---	0.00	30.067 
02:40	57.5	57.5	57.5	96	56.4	0	0	---	0.00	30.070 
02:45	57.5	57.5	57.5	96	56.4	0	0	---	0.00	30.071 
02:50	57.3	57.3	57.3	96	56.2	0	0	---	0.00	30.071 
02:55	57.2	57.2	57.2	96	56.1	0	0	---	0.00	30.071 
03:00	57.2	57.2	57.2	96	56.1	0	0	---	0.00	30.071 
03:05	57.0	57.0	57.0	96	55.9	0	0	---	0.00	30.070 
03:10	57.0	57.0	57.0	96	55.9	0	0	---	0.00	30.072 
03:15	57.0	57.0	57.0	96	55.9	0	0	---	0.00	30.072 
03:20	56.9	56.9	56.9	96	55.8	0	0	---	0.00	30.072 
03:25	56.7	56.7	56.7	96	55.6	0	0	---	0.00	30.072 
03:30	56.6	56.6	56.6	96	55.5	0	0	---	0.00	30.072 
03:35	56.5	56.5	56.5	96	55.4	0	0	---	0.00	30.073 
03:40	56.5	56.5	56.5	96	55.4	0	0	---	0.00	30.073 
03:45	56.6	56.6	56.6	96	55.5	0	0	---	0.00	30.073 
03:50	56.6	56.6	56.6	97	55.8	0	0	---	0.00	30.073 
03:55	56.6	56.6	56.6	97	55.8	0	0	---	0.00	30.073 
04:00	56.6	56.6	56.6	97	55.8	0	0	---	0.00	30.072 
04:05	56.5	56.5	56.5	97	55.7	0	0	---	0.00	30.072 
04:10	56.5	56.5	56.5	97	55.7	0	0	---	0.00	30.072 
04:15	56.3	56.3	56.3	97	55.5	0	0	---	0.00	30.071 
04:20	56.2	56.2	56.2	97	55.4	0	0	---	0.00	30.074 
04:25	56.0	56.0	56.0	97	55.2	0	0	---	0.00	30.073 
04:30	55.9	55.9	55.9	97	55.1	0	0	---	0.00	30.070 
04:35	55.7	55.7	55.7	97	54.9	0	0	---	0.00	30.070 
04:40	55.6	55.6	55.6	97	54.8	0	0	---	0.00	30.072 
04:45	55.6	55.6	55.6	97	54.8	0	0	---	0.00	30.071 
04:50	55.6	55.6	55.6	97	54.8	0	0	---	0.00	30.072 
04:55	55.6	55.6	55.6	97	54.8	0	0	---	0.00	30.072 
05:00	55.7	55.7	55.7	97	54.9	0	0	---	0.00	30.072 
05:05	55.6	55.6	55.6	97	54.8	0	0	---	0.00	30.072 
05:10	55.6	55.6	55.6	97	54.8	0	0	---	0.00	30.072 
05:15	55.6	55.6	55.6	97	54.8	0	0	---	0.00	30.074 
05:20	55.6	55.6	55.6	97	54.8	0	0	---	0.00	30.076 
05:25	55.4	55.4	55.4	97	54.6	0	0	---	0.00	30.076 
05:30	55.3	55.3	55.3	97	54.5	0	0	---	0.00	30.076 
05:35	55.3	55.3	55.3	97	54.5	0	0	---	0.00	30.076 
05:40	55.4	55.4	55.4	97	54.6	0	0	---	0.00	30.077 
05:45	55.4	55.4	55.4	97	54.6	0	0	---	0.00	30.076 
05:50	55.4	55.4	55.4	97	54.6	0	0	---	0.00	30.076 
05:55	55.4	55.4	55.4	97	54.6	0	0	---	0.00	30.077 
06:00	55.4	55.4	55.4	97	54.6	0	0	---	0.00	30.077 
06:05	55.3	55.3	55.3	97	54.5	0	0	---	0.00	30.080 
06:10	55.3	55.3	55.3	97	54.5	0	0	---	0.00	30.081 
06:15	55.1	55.1	55.1	97	54.3	0	0	---	0.00	30.081 
06:20	55.1	55.1	55.1	97	54.3	0	0	---	0.00	30.081 
06:25	55.0	55.0	55.0	97	54.2	0	0	---	0.00	30.081 
06:30	55.0	55.0	55.0	97	54.2	0	0	---	0.00	30.082 
06:35	55.0	55.0	55.0	97	54.2	0	0	---	0.00	30.082 
06:40	55.1	55.1	55.1	97	54.3	0	0	---	0.00	30.082 
06:45	55.4	55.4	55.4	97	54.6	0	0	---	0.00	30.081 
06:50	55.7	55.7	55.7	98	55.1	0	0	---	0.00	30.081 
06:55	56.2	56.2	56.2	98	55.6	0	0	---	0.00	30.081 
07:00	56.6	56.6	56.6	98	56.0	0	0	---	0.00	30.080 
07:05	57.2	57.2	57.2	98	56.6	0	0	---	0.00	30.085 
07:10	58.1	58.1	58.1	98	57.5	0	0	---	0.00	30.086 
07:15	59.0	59.0	59.0	98	58.4	0	1	90	0.00	30.085 
07:20	59.6	59.6	59.6	98	59.0	0	0	---	0.00	30.085 
07:25	60.4	60.4	60.4	98	59.8	0	1	90	0.00	30.084 
07:30	60.7	60.7	60.7	98	60.1	0	1	90	0.00	30.081 
07:35	61.0	61.0	61.0	98	60.4	0	1	90	0.00	30.082 
07:40	61.5	61.5	61.5	98	60.9	0	1	90	0.00	30.081 
07:45	62.1	62.1	62.1	97	61.2	0	2	90	0.00	30.081 
07:50	62.9	62.9	62.9	93	60.8	0	1	90	0.00	30.078 
07:55	63.7	63.7	63.7	88	60.1	0	2	90	0.00	30.079 
08:00	64.7	64.7	64.7	83	59.4	0	2	90	0.00	30.078 
08:05	65.5	65.5	65.5	79	58.8	0	2	90	0.00	30.083 
08:10	66.1	66.1	66.1	77	58.7	0	2	90	0.00	30.081 
08:15	66.8	66.8	66.8	75	58.6	0	2	90	0.00	30.083 
08:20	67.3	67.3	67.3	74	58.7	0	2	68	0.00	30.086 
08:25	67.9	67.9	67.9	73	58.9	0	1	68	0.00	30.084 
08:30	68.3	68.3	68.3	71	58.5	0	1	68	0.00	30.085 
08:35	68.8	68.8	68.8	71	59.0	0	2	68	0.00	30.085 
08:40	69.4	69.4	69.4	70	59.2	0	1	68	0.00	30.086 
08:45	69.9	69.9	69.9	69	59.3	1	2	248	0.00	30.087 
08:50	70.4	70.4	70.4	69	59.7	0	1	248	0.00	30.089 
08:55	70.9	70.9	70.9	68	59.8	0	2	248	0.00	30.090 
09:00	71.6	71.6	71.6	65	59.2	0	2	248	0.00	30.088 
09:05	72.1	72.1	72.1	64	59.2	1	2	248	0.00	30.092 
09:10	72.8	72.8	72.8	62	59.0	1	2	248	0.00	30.091 
09:15	73.5	73.5	73.5	62	59.7	1	2	270	0.00	30.090 
09:20	74.0	74.0	74.0	63	60.6	0	2	270	0.00	30.090 
09:25	74.6	74.6	74.6	60	59.8	1	2	270	0.00	30.090 
09:30	75.1	75.1	77.5	59	59.8	0	1	270	0.00	30.088 
09:35	75.8	75.8	77.9	60	60.9	0	1	270	0.00	30.088 
09:40	76.3	76.3	78.2	58	60.4	0	1	270	0.00	30.087 
09:45	76.7	76.7	78.5	56	59.8	1	3	270	0.00	30.087 
09:50	77.0	77.0	78.7	56	60.1	1	3	270	0.00	30.087 
09:55	77.6	77.6	79.2	57	61.1	1	3	270	0.00	30.086 
10:00	77.9	77.9	79.3	54	59.9	1	3	270	0.00	30.086 
10:05	78.3	78.3	79.7	54	60.3	1	3	270	0.00	30.089 
10:10	78.6	78.6	80.0	55	61.1	1	3	270	0.00	30.088 
10:15	78.6	78.6	80.0	55	61.1	1	2	315	0.00	30.088 
10:20	79.0	79.0	80.2	53	60.4	1	3	315	0.00	30.087 
10:25	79.4	79.4	80.5	53	60.8	1	3	315	0.00	30.088 
10:30	79.8	79.8	80.7	51	60.0	1	3	270	0.00	30.087 
10:35	80.3	80.3	81.4	53	61.6	1	3	270	0.00	30.086 
10:40	80.3	80.3	81.1	50	59.9	1	4	292	0.00	30.086 
10:45	80.7	80.7	81.4	50	60.3	1	4	292	0.00	30.085 
10:50	80.9	80.9	81.6	50	60.5	1	3	270	0.00	30.084 
10:55	81.2	81.2	81.8	49	60.2	2	3	270	0.00	30.082 
11:00	81.6	81.6	82.1	48	60.0	1	3	270	0.00	30.082 
11:05	81.8	81.8	82.1	47	59.6	2	4	248	0.00	30.083 
11:10	82.2	82.2	82.4	46	59.3	1	4	270	0.00	30.082 
11:15	82.4	82.4	82.7	47	60.1	1	3	270	0.00	30.080 
11:20	82.6	82.6	82.8	46	59.7	1	3	270	0.00	30.080 
11:25	82.8	82.8	83.0	46	59.9	1	3	270	0.00	30.077 
11:30	83.0	83.0	82.9	44	58.8	1	4	292	0.00	30.077 
11:35	83.2	83.2	83.1	44	59.0	1	3	270	0.00	30.075 
11:40	83.4	83.4	83.7	46	60.4	1	3	270	0.00	30.075 
11:45	83.8	83.8	83.9	45	60.2	1	2	292	0.00	30.072 
11:50	83.8	83.8	83.4	42	58.2	1	3	292	0.00	30.072 
11:55	84.0	84.0	84.0	44	59.7	1	3	292	0.00	30.070 
12:00	84.0	84.0	84.0	44	59.7	1	3	270	0.00	30.069 
12:05	83.8	83.8	83.4	42	58.2	1	4	270	0.00	30.071 
12:10	83.8	83.8	84.1	46	60.8	0	2	315	0.00	30.070 
12:15	83.8	83.8	84.1	46	60.8	1	2	315	0.00	30.069 
12:20	83.8	83.8	83.7	44	59.5	1	3	270	0.00	30.070 
12:25	83.8	83.8	83.9	45	60.2	1	3	315	0.00	30.070 
12:30	84.0	84.0	84.5	47	61.6	1	4	292	0.00	30.068 
12:35	84.3	84.3	84.7	46	61.2	1	3	292	0.00	30.068 
12:40	84.5	84.5	84.7	45	60.8	1	3	270	0.00	30.066 
12:45	84.7	84.7	84.7	44	60.3	1	4	270	0.00	30.065 
12:50	84.7	84.7	84.6	43	59.7	1	4	270	0.00	30.062 
12:55	84.9	84.9	85.2	45	61.2	1	3	292	0.00	30.059 
13:00	85.1	85.1	85.0	43	60.1	0	2	270	0.00	30.059 
13:05	85.3	85.3	85.2	43	60.2	1	5	292	0.00	30.056 
13:10	84.9	84.9	84.4	41	58.5	1	3	292	0.00	30.056 
13:15	84.9	84.9	84.4	41	58.5	1	3	292	0.00	30.057 
13:20	84.9	84.9	85.0	44	60.5	1	3	292	0.00	30.056 
13:25	85.1	85.1	84.1	38	56.6	2	4	270	0.00	30.055 
13:30	85.1	85.1	84.8	42	59.4	1	4	270	0.00	30.055 
13:35	85.3	85.3	84.7	40	58.2	1	3	270	0.00	30.052 
13:40	85.5	85.5	85.1	41	59.1	1	4	292	0.00	30.052 
13:45	85.1	85.1	84.4	40	58.0	1	3	315	0.00	30.048 
13:50	85.1	85.1	84.3	39	57.3	1	4	270	0.00	30.047 
13:55	85.1	85.1	84.3	39	57.3	1	2	315	0.00	30.042 
14:00	85.5	85.5	84.9	40	58.4	1	4	270	0.00	30.043 
14:05	85.5	85.5	84.9	40	58.4	0	2	292	0.00	30.041 
14:10	85.3	85.3	85.0	42	59.6	1	2	315	0.00	30.041 
14:15	85.1	85.1	84.4	40	58.0	2	5	315	0.00	30.041 
14:20	85.3	85.3	84.8	41	58.9	1	4	248	0.00	30.039 
14:25	85.7	85.7	84.9	39	57.9	2	4	270	0.00	30.038 
14:30	85.3	85.3	84.8	41	58.9	1	3	315	0.00	30.036 
14:35	85.1	85.1	85.0	43	60.1	1	3	315	0.00	30.034 
14:40	85.7	85.7	86.4	46	62.5	1	5	270	0.00	30.032 
14:45	85.9	85.9	85.7	42	60.1	1	3	315	0.00	30.031 
14:50	85.9	85.9	85.3	40	58.7	0	3	315	0.00	30.031 
14:55	85.7	85.7	85.1	40	58.6	1	3	270	0.00	30.032 
15:00	85.7	85.7	85.7	43	60.6	1	3	315	0.00	30.031 
15:05	85.5	85.5	85.1	41	59.1	0	2	315	0.00	30.027 
15:10	85.5	85.5	84.9	40	58.4	1	2	315	0.00	30.028 
15:15	85.3	85.3	84.7	40	58.2	1	3	338	0.00	30.026 
15:20	85.3	85.3	84.8	41	58.9	1	4	270	0.00	30.025 
15:25	85.3	85.3	84.3	38	56.8	1	3	338	0.00	30.024 
15:30	85.3	85.3	84.3	38	56.8	2	4	315	0.00	30.023 
15:35	85.3	85.3	84.3	38	56.8	1	3	292	0.00	30.023 
15:40	85.3	85.3	84.5	39	57.5	1	2	315	0.00	30.022 
15:45	85.3	85.3	84.7	40	58.2	2	5	315	0.00	30.020 
15:50	85.3	85.3	85.2	43	60.2	1	3	315	0.00	30.018 
15:55	85.3	85.3	84.8	41	58.9	1	3	248	0.00	30.016 
16:00	85.3	85.3	84.5	39	57.5	1	2	315	0.00	30.015 
16:05	85.3	85.3	85.0	42	59.6	0	1	315	0.00	30.013 
16:10	85.3	85.3	84.7	40	58.2	1	2	315	0.00	30.013 
16:15	85.1	85.1	84.6	41	58.7	0	2	292	0.00	30.013 
16:20	84.7	84.7	84.4	42	59.0	1	2	315	0.00	30.014 
16:25	84.5	84.5	84.5	44	60.2	0	2	315	0.00	30.014 
16:30	84.7	84.7	84.6	43	59.7	1	3	315	0.00	30.013 
16:35	84.9	84.9	84.6	42	59.2	1	2	270	0.00	30.012 
16:40	84.7	84.7	84.7	44	60.3	1	3	315	0.00	30.013 
16:45	84.7	84.7	84.7	44	60.3	1	3	315	0.00	30.012 
16:50	84.5	84.5	84.5	44	60.2	1	3	270	0.00	30.010 
16:55	84.3	84.3	84.5	45	60.6	0	2	270	0.00	30.009 
17:00	84.3	84.3	84.3	44	60.0	1	2	270	0.00	30.010 
17:05	84.3	84.3	84.7	46	61.2	0	2	270	0.00	30.011 
17:10	84.1	84.1	84.1	44	59.8	1	2	270	0.00	30.010 
17:15	84.0	84.0	84.1	45	60.3	0	1	292	0.00	30.010 
17:20	83.8	83.8	84.1	46	60.8	0	1	292	0.00	30.009 
17:25	83.8	83.8	84.1	46	60.8	0	2	292	0.00	30.009 
17:30	83.6	83.6	84.1	47	61.2	0	1	292	0.00	30.009 
17:35	83.4	83.4	83.8	47	61.0	0	2	292	0.00	30.010 
17:40	83.2	83.2	83.8	48	61.4	0	2	292	0.00	30.011 
17:45	83.2	83.2	83.8	48	61.4	0	2	292	0.00	30.011 
17:50	83.0	83.0	83.7	49	61.8	0	2	292	0.00	30.010 
17:55	82.8	82.8	83.5	49	61.7	0	2	248	0.00	30.010 
18:00	82.8	82.8	83.5	49	61.7	0	2	248	0.00	30.012 
18:05	82.6	82.6	83.3	49	61.5	0	1	248	0.00	30.011 
18:10	82.4	82.4	83.2	50	61.9	0	1	248	0.00	30.011 
18:15	82.2	82.2	83.0	50	61.7	0	1	248	0.00	30.010 
18:20	82.0	82.0	82.9	51	62.1	0	1	248	0.00	30.010 
18:25	81.8	81.8	82.7	51	61.9	0	2	248	0.00	30.009 
18:30	81.6	81.6	82.6	52	62.2	0	1	248	0.00	30.009 
18:35	81.2	81.2	82.3	53	62.4	0	1	248	0.00	30.009 
18:40	81.1	81.1	82.3	54	62.9	0	0	---	0.00	30.008 
18:45	80.9	80.9	82.1	54	62.7	0	0	---	0.00	30.008 
18:50	80.5	80.5	81.8	55	62.8	0	0	---	0.00	30.008 
18:55	80.1	80.1	81.5	56	63.0	0	0	---	0.00	30.010 
19:00	79.6	79.6	81.1	57	63.0	0	0	---	0.00	30.010 
19:05	79.0	79.0	80.5	58	62.9	0	0	---	0.00	30.005 
19:10	78.5	78.5	80.1	59	63.0	0	0	---	0.00	30.004 
19:15	77.9	77.9	79.6	61	63.3	0	0	---	0.00	30.005 
19:20	77.4	77.4	79.2	62	63.3	0	0	---	0.00	30.006 
19:25	76.7	76.7	78.5	64	63.6	0	0	---	0.00	30.005 
19:30	76.3	76.3	78.1	65	63.6	0	0	---	0.00	30.007 
19:35	75.8	75.8	77.7	66	63.6	0	0	---	0.00	30.007 
19:40	75.4	75.4	77.3	67	63.7	0	0	---	0.00	30.007 
19:45	74.9	74.9	74.9	68	63.6	0	0	---	0.00	30.008 
19:50	74.4	74.4	74.4	69	63.5	0	0	---	0.00	30.008 
19:55	74.0	74.0	74.0	69	63.2	0	0	---	0.00	30.012 
20:00	73.9	73.9	73.9	70	63.5	0	0	---	0.00	30.015 
20:05	73.5	73.5	73.5	71	63.5	0	0	---	0.00	30.010 
20:10	73.0	73.0	73.0	72	63.4	0	0	---	0.00	30.015 
20:15	72.7	72.7	72.7	73	63.5	0	0	---	0.00	30.017 
20:20	72.3	72.3	72.3	74	63.5	0	0	---	0.00	30.018 
20:25	72.1	72.1	72.1	75	63.7	0	0	---	0.00	30.017 
20:30	71.8	71.8	71.8	76	63.8	0	0	---	0.00	30.017 
20:35	71.5	71.5	71.5	77	63.9	0	0	---	0.00	30.019 
20:40	71.3	71.3	71.3	77	63.7	0	0	---	0.00	30.020 
20:45	71.1	71.1	71.1	78	63.9	0	0	---	0.00	30.021 
20:50	70.9	70.9	70.9	79	64.1	0	0	---	0.00	30.021 
20:55	70.6	70.6	70.6	79	63.8	0	0	---	0.00	30.022 
21:00	70.4	70.4	70.4	80	63.9	0	0	---	0.00	30.021 
21:05	70.3	70.3	70.3	80	63.8	0	0	---	0.00	30.017 
21:10	70.1	70.1	70.1	81	64.0	0	0	---	0.00	30.017 
21:15	70.1	70.1	70.1	81	64.0	0	0	---	0.00	30.017 
21:20	69.9	69.9	69.9	81	63.8	0	0	---	0.00	30.018 
21:25	69.9	69.9	69.9	82	64.1	0	0	---	0.00	30.018 
21:30	69.8	69.8	69.8	83	64.4	0	0	---	0.00	30.018 
21:35	69.6	69.6	69.6	82	63.9	0	0	---	0.00	30.020 
21:40	69.4	69.4	69.4	83	64.0	0	0	---	0.00	30.022 
21:45	69.3	69.3	69.3	84	64.2	0	0	---	0.00	30.021 
21:50	69.1	69.1	69.1	84	64.1	0	0	---	0.00	30.021 
21:55	68.9	68.9	68.9	84	63.9	0	0	---	0.00	30.020 
22:00	68.8	68.8	68.8	85	64.1	0	0	---	0.00	30.020 
22:05	68.6	68.6	68.6	85	63.9	0	0	---	0.00	30.016 
22:10	68.4	68.4	68.4	86	64.0	0	0	---	0.00	30.016 
22:15	68.3	68.3	68.3	87	64.3	0	0	---	0.00	30.016 
22:20	68.1	68.1	68.1	87	64.1	0	0	---	0.00	30.016 
22:25	67.9	67.9	67.9	87	63.9	0	0	---	0.00	30.016 
22:30	67.9	67.9	67.9	88	64.2	0	0	---	0.00	30.015 
22:35	67.8	67.8	67.8	88	64.1	0	0	---	0.00	30.015 
22:40	67.6	67.6	67.6	88	63.9	0	0	---	0.00	30.014 
22:45	67.6	67.6	67.6	88	63.9	0	0	---	0.00	30.011 
22:50	67.4	67.4	67.4	89	64.0	0	0	---	0.00	30.011 
22:55	67.3	67.3	67.3	89	63.9	0	0	---	0.00	30.014 
23:00	67.3	67.3	67.3	90	64.3	0	0	---	0.00	30.015 
23:05	67.1	67.1	67.1	90	64.1	0	0	---	0.00	30.014 
23:10	66.9	66.9	66.9	90	63.9	0	0	---	0.00	30.015 
23:15	66.8	66.8	66.8	90	63.8	0	0	---	0.00	30.014 
23:20	66.8	66.8	66.8	90	63.8	0	0	---	0.00	30.013 
23:25	66.6	66.6	66.6	91	63.9	0	0	---	0.00	30.014 
23:30	66.6	66.6	66.6	91	63.9	0	0	---	0.00	30.013 
23:35	66.4	66.4	66.4	91	63.7	0	0	---	0.00	30.011 
23:40	66.4	66.4	66.4	91	63.7	0	0	---	0.00	30.010 
23:45	66.4	66.4	66.4	92	64.0	0	0	---	0.00	30.010 
23:50	66.3	66.3	66.3	92	63.9	0	0	---	0.00	30.007 
23:55	66.1	66.1	66.1	92	63.7	0	0	---	0.00	30.007 

CoCoRaHS
IN-AL-39
A2 Web Hosting
Creative Commons License
GoDaddy
Look for:

loaded 2017-10-16 20:13:21 • last modified 2010-11-18 10:43:29
Privacy PolicyDisclaimer
• wx.awcolley.com is powered by PmWiki v.2002016 •
• all content (unless otherwise noted) © 2017 A W Colley